createdAt,value
2019-05-13T00:00:36.408Z,8.98
2019-05-13T00:03:08.296Z,9.08
2019-05-13T00:05:44.234Z,8.98
2019-05-13T00:08:15.379Z,8.88
2019-05-13T00:10:47.289Z,8.82
2019-05-13T00:13:18.545Z,8.78
2019-05-13T00:15:50.475Z,8.96
2019-05-13T00:18:23.559Z,8.94
2019-05-13T00:20:55.574Z,8.95
2019-05-13T00:23:27.500Z,8.80
2019-05-13T00:25:59.468Z,8.73
2019-05-13T00:28:33.986Z,8.80
2019-05-13T00:31:06.125Z,8.74
2019-05-13T00:33:38.067Z,8.70
2019-05-13T00:36:10.002Z,8.56
2019-05-13T00:38:43.948Z,8.57
2019-05-13T00:41:15.505Z,8.51
2019-05-13T00:43:47.380Z,8.42
2019-05-13T00:46:19.251Z,8.37
2019-05-13T00:48:51.091Z,8.46
2019-05-13T00:51:24.378Z,8.43
2019-05-13T00:53:56.336Z,8.39
2019-05-13T00:56:28.170Z,8.34
2019-05-13T00:59:00.221Z,8.38
2019-05-13T01:01:33.560Z,8.38
2019-05-13T01:04:05.474Z,8.44
2019-05-13T01:06:37.371Z,8.33
2019-05-13T01:09:09.690Z,8.31
2019-05-13T01:11:40.884Z,8.28
2019-05-13T01:14:14.328Z,8.31
2019-05-13T01:16:45.703Z,8.17
2019-05-13T01:19:16.778Z,8.27
2019-05-13T01:21:48.640Z,8.22
2019-05-13T01:24:19.851Z,8.08
2019-05-13T01:26:54.002Z,7.95
2019-05-13T01:29:25.326Z,7.84
2019-05-13T01:31:57.120Z,7.84
2019-05-13T01:34:29.052Z,7.88
2019-05-13T01:37:01.061Z,7.84
2019-05-13T01:39:34.926Z,7.75
2019-05-13T01:42:06.386Z,7.64
2019-05-13T01:44:38.169Z,7.61
2019-05-13T01:47:10.041Z,7.56
2019-05-13T01:49:43.898Z,7.46
2019-05-13T01:52:15.427Z,7.43
2019-05-13T01:54:48.247Z,7.39
2019-05-13T01:57:20.169Z,7.40
2019-05-13T01:59:53.786Z,7.29
2019-05-13T02:02:25.806Z,7.27
2019-05-13T02:04:57.658Z,7.39
2019-05-13T02:07:29.444Z,7.26
2019-05-13T02:10:04.196Z,7.22
2019-05-13T02:12:35.632Z,7.23
2019-05-13T02:15:07.295Z,7.22
2019-05-13T02:17:39.068Z,7.09
2019-05-13T02:20:10.526Z,6.96
2019-05-13T02:22:44.526Z,6.91
2019-05-13T02:25:15.811Z,6.85
2019-05-13T02:27:47.663Z,6.83
2019-05-13T02:30:18.869Z,6.70
2019-05-13T02:32:52.935Z,6.85
2019-05-13T02:35:23.493Z,6.71
2019-05-13T02:38:12.532Z,6.77
2019-05-13T02:40:29.073Z,6.82
2019-05-13T02:43:02.891Z,6.71
2019-05-13T02:45:34.176Z,6.77
2019-05-13T02:48:05.947Z,6.73
2019-05-13T02:50:37.756Z,6.58
2019-05-13T02:53:13.369Z,6.54
2019-05-13T02:55:43.811Z,6.40
2019-05-13T02:58:15.711Z,6.38
2019-05-13T03:00:47.641Z,6.30
2019-05-13T03:03:22.696Z,6.22
2019-05-13T03:05:53.643Z,6.08
2019-05-13T03:08:39.128Z,6.05
2019-05-13T03:10:59.203Z,6.00
2019-05-13T03:13:32.643Z,5.84
2019-05-13T03:16:13.819Z,5.66
2019-05-13T03:18:45.772Z,5.82
2019-05-13T03:21:17.648Z,5.82
2019-05-13T03:23:52.292Z,5.85
2019-05-13T03:26:23.480Z,5.87
2019-05-13T03:28:55.670Z,5.76
2019-05-13T03:31:27.516Z,5.72
2019-05-13T03:33:59.368Z,5.69
2019-05-13T03:36:36.397Z,5.61
2019-05-13T03:39:12.468Z,5.55
2019-05-13T03:41:43.598Z,5.54
2019-05-13T03:44:16.266Z,5.57
2019-05-13T03:46:52.881Z,5.51
2019-05-13T03:49:32.271Z,5.50
2019-05-13T03:52:03.538Z,5.46
2019-05-13T03:54:35.410Z,5.36
2019-05-13T03:57:07.377Z,5.36
2019-05-13T03:59:43.329Z,5.28
2019-05-13T04:02:14.516Z,5.39
2019-05-13T04:04:46.375Z,5.39
2019-05-13T04:07:18.193Z,5.40
2019-05-13T04:09:52.445Z,5.32
2019-05-13T04:12:28.121Z,5.21
2019-05-13T04:14:57.348Z,5.21
2019-05-13T04:17:31.978Z,5.19
2019-05-13T04:20:03.267Z,5.25
2019-05-13T04:22:35.313Z,5.37
2019-05-13T04:25:06.973Z,5.40
2019-05-13T04:27:38.778Z,5.43
2019-05-13T04:30:13.393Z,5.44
2019-05-13T04:32:45.531Z,5.54
2019-05-13T04:35:17.431Z,5.52
2019-05-13T04:37:52.224Z,5.67
2019-05-13T04:40:23.708Z,5.79
2019-05-13T04:42:55.678Z,5.83
2019-05-13T04:45:27.519Z,5.86
2019-05-13T04:48:03.311Z,6.02
2019-05-13T04:50:34.563Z,6.06
2019-05-13T04:53:06.374Z,6.19
2019-05-13T04:55:37.491Z,6.19
2019-05-13T04:58:12.673Z,6.16
2019-05-13T05:01:51.738Z,6.44
2019-05-13T05:04:39.345Z,6.52
2019-05-13T05:07:52.967Z,6.69
2019-05-13T05:11:22.193Z,6.83
2019-05-13T05:14:14.566Z,7.05
2019-05-13T05:17:52.343Z,7.28
2019-05-13T05:21:02.757Z,7.50
2019-05-13T05:24:33.203Z,7.74
2019-05-13T05:27:36.972Z,7.87
2019-05-13T05:31:05.106Z,8.04
2019-05-13T05:34:16.750Z,8.16
2019-05-13T05:37:23.879Z,7.98
2019-05-13T05:40:02.088Z,8.17
2019-05-13T05:42:41.249Z,8.27
2019-05-13T05:45:14.002Z,8.22
2019-05-13T05:48:06.331Z,8.22
2019-05-13T05:50:42.398Z,8.32
2019-05-13T05:53:18.425Z,8.36
2019-05-13T05:55:54.921Z,8.35
2019-05-13T05:58:31.597Z,8.42
2019-05-13T06:01:04.915Z,8.53
2019-05-13T06:03:41.885Z,8.43
2019-05-13T06:06:16.071Z,8.43
2019-05-13T06:08:48.689Z,8.50
2019-05-13T06:11:22.245Z,8.57
2019-05-13T06:13:56.611Z,8.51
2019-05-13T06:16:28.151Z,8.67
2019-05-13T06:19:01.897Z,8.79
2019-05-13T06:21:34.297Z,8.73
2019-05-13T06:24:06.366Z,8.83
2019-05-13T06:26:38.441Z,8.93
2019-05-13T06:29:11.655Z,9.11
2019-05-13T06:31:44.053Z,9.06
2019-05-13T06:34:16.089Z,9.09
2019-05-13T06:36:48.087Z,9.16
2019-05-13T06:39:22.210Z,9.35
2019-05-13T06:41:54.001Z,9.25
2019-05-13T06:44:26.061Z,9.42
2019-05-13T06:46:58.017Z,9.53
2019-05-13T06:49:32.637Z,9.64
2019-05-13T06:52:03.919Z,9.66
2019-05-13T06:54:35.931Z,9.62
2019-05-13T06:57:07.131Z,9.70
2019-05-13T06:59:38.954Z,9.66
2019-05-13T07:02:12.426Z,9.83
2019-05-13T07:04:44.479Z,9.91
2019-05-13T07:07:17.470Z,9.93
2019-05-13T07:09:51.790Z,9.98
2019-05-13T07:12:23.346Z,10.04
2019-05-13T07:14:55.222Z,10.35
2019-05-13T07:17:27.069Z,10.40
2019-05-13T07:19:58.920Z,10.56
2019-05-13T07:22:32.143Z,10.34
2019-05-13T07:25:04.358Z,10.47
2019-05-13T07:27:36.194Z,10.49
2019-05-13T07:30:11.134Z,10.67
2019-05-13T07:32:43.962Z,10.69
2019-05-13T07:35:16.788Z,10.70
2019-05-13T07:37:48.660Z,10.95
2019-05-13T07:40:22.248Z,11.00
2019-05-13T07:42:55.378Z,11.03
2019-05-13T07:45:27.419Z,11.10
2019-05-13T07:48:01.434Z,11.23
2019-05-13T07:50:33.036Z,11.42
2019-05-13T07:53:05.120Z,11.33
2019-05-13T07:55:36.292Z,11.35
2019-05-13T07:58:11.332Z,11.21
2019-05-13T08:00:43.134Z,11.26
2019-05-13T08:03:15.023Z,11.26
2019-05-13T08:05:46.304Z,11.32
2019-05-13T08:08:17.720Z,11.44
2019-05-13T08:10:49.040Z,11.77
2019-05-13T08:13:22.532Z,11.84
2019-05-13T08:15:54.683Z,11.96
2019-05-13T08:18:25.962Z,11.89
2019-05-13T08:20:57.246Z,12.02
2019-05-13T08:23:28.634Z,11.97
2019-05-13T08:26:02.222Z,12.30
2019-05-13T08:28:33.620Z,12.36
2019-05-13T08:31:05.688Z,12.55
2019-05-13T08:33:37.385Z,13.10
2019-05-13T08:36:08.650Z,12.98
2019-05-13T08:38:42.964Z,12.90
2019-05-13T08:41:18.781Z,13.03
2019-05-13T08:43:46.656Z,13.40
2019-05-13T08:46:17.926Z,13.35
2019-05-13T08:48:51.879Z,12.94
2019-05-13T08:51:23.863Z,12.65
2019-05-13T08:53:55.028Z,12.82
2019-05-13T08:56:26.976Z,12.92
2019-05-13T08:58:58.462Z,13.09
2019-05-13T09:01:31.949Z,13.23
2019-05-13T09:04:04.363Z,12.92
2019-05-13T09:06:37.102Z,12.88
2019-05-13T09:09:11.474Z,12.81
2019-05-13T09:11:43.034Z,13.19
2019-05-13T09:14:15.915Z,13.37
2019-05-13T09:16:47.921Z,13.42
2019-05-13T09:19:21.436Z,13.48
2019-05-13T09:21:52.696Z,13.38
2019-05-13T09:24:33.001Z,13.92
2019-05-13T09:26:58.304Z,14.67
2019-05-13T09:29:32.226Z,14.61
2019-05-13T09:32:04.317Z,14.30
2019-05-13T09:34:35.568Z,14.12
2019-05-13T09:37:07.480Z,13.88
2019-05-13T09:39:41.281Z,13.73
2019-05-13T09:42:12.650Z,13.70
2019-05-13T09:44:44.648Z,13.50
2019-05-13T09:47:15.871Z,13.75
2019-05-13T09:49:47.653Z,14.02
2019-05-13T09:52:19.584Z,14.12
2019-05-13T09:54:52.420Z,14.08
2019-05-13T09:57:24.421Z,14.74
2019-05-13T09:59:56.495Z,15.22
2019-05-13T10:02:28.445Z,15.11
2019-05-13T10:05:01.944Z,14.94
2019-05-13T10:07:33.319Z,15.09
2019-05-13T10:10:05.223Z,15.25
2019-05-13T10:12:36.419Z,15.03
2019-05-13T10:15:08.071Z,15.30
2019-05-13T10:17:42.467Z,15.32
2019-05-13T10:20:13.797Z,15.12
2019-05-13T10:22:45.767Z,14.97
2019-05-13T10:25:22.250Z,14.52
2019-05-13T10:27:52.663Z,14.04
2019-05-13T10:30:24.824Z,14.43
2019-05-13T10:32:59.450Z,14.98
2019-05-13T10:35:31.684Z,15.10
2019-05-13T10:38:04.599Z,15.77
2019-05-13T10:40:36.798Z,16.61
2019-05-13T10:43:26.238Z,16.59
2019-05-13T10:45:41.630Z,15.70
2019-05-13T10:48:13.649Z,16.00
2019-05-13T10:50:45.903Z,15.51
2019-05-13T10:53:17.759Z,15.20
2019-05-13T10:55:51.503Z,15.86
2019-05-13T10:58:23.600Z,16.14
2019-05-13T11:00:56.471Z,16.65
2019-05-13T11:03:28.445Z,16.63
2019-05-13T11:06:00.357Z,15.91
2019-05-13T11:08:32.983Z,15.03
2019-05-13T11:11:06.270Z,15.37
2019-05-13T11:13:52.321Z,15.29
2019-05-13T11:16:12.153Z,15.35
2019-05-13T11:18:43.636Z,15.32
2019-05-13T11:21:15.856Z,15.07
2019-05-13T11:23:47.795Z,15.22
2019-05-13T11:26:21.959Z,15.18
2019-05-13T11:28:53.044Z,15.49
2019-05-13T11:31:24.907Z,16.16
2019-05-13T11:33:57.179Z,15.85
2019-05-13T11:36:30.056Z,16.34
2019-05-13T11:39:05.006Z,16.42
2019-05-13T11:41:36.996Z,16.95
2019-05-13T11:46:43.235Z,16.76
2019-05-13T11:49:15.332Z,16.64
2019-05-13T11:51:46.705Z,16.65
2019-05-13T11:54:17.805Z,16.58
2019-05-13T11:57:00.828Z,16.14
2019-05-13T11:59:22.603Z,16.29
2019-05-13T12:01:54.547Z,15.99
2019-05-13T12:04:26.148Z,15.55
2019-05-13T12:06:58.407Z,15.43
2019-05-13T12:09:31.978Z,15.47
2019-05-13T12:12:04.141Z,15.71
2019-05-13T12:14:56.437Z,16.00
2019-05-13T12:17:09.383Z,15.62
2019-05-13T12:19:41.838Z,15.58
2019-05-13T12:22:13.907Z,16.09
2019-05-13T12:24:46.002Z,16.53
2019-05-13T12:27:18.224Z,15.80
2019-05-13T12:29:52.781Z,16.02
2019-05-13T12:32:23.541Z,15.79
2019-05-13T12:34:55.695Z,16.60
2019-05-13T12:37:27.608Z,16.62
2019-05-13T12:39:59.227Z,16.64
2019-05-13T12:42:33.843Z,16.88
2019-05-13T12:47:37.822Z,16.26
2019-05-13T12:50:13.479Z,16.25
2019-05-13T12:52:44.103Z,16.18
2019-05-13T12:55:15.898Z,16.09
2019-05-13T12:57:48.062Z,16.76
2019-05-13T13:00:23.307Z,16.77
2019-05-13T13:02:53.268Z,16.53
2019-05-13T13:05:31.903Z,16.32
2019-05-13T13:08:17.089Z,15.68
2019-05-13T13:10:34.467Z,15.30
2019-05-13T13:13:06.591Z,15.30
2019-05-13T13:15:43.483Z,15.23
2019-05-13T13:18:14.357Z,15.31
2019-05-13T13:20:45.453Z,14.99
2019-05-13T13:23:16.638Z,15.27
2019-05-13T13:25:53.038Z,15.01
2019-05-13T13:28:23.834Z,15.41
2019-05-13T13:30:54.243Z,15.39
2019-05-13T13:33:26.058Z,15.34
2019-05-13T13:36:00.181Z,15.22
2019-05-13T13:38:32.632Z,15.54
2019-05-13T13:41:04.540Z,15.55
2019-05-13T13:43:37.369Z,15.85
2019-05-13T13:46:25.350Z,16.04
2019-05-13T13:48:43.688Z,16.26
2019-05-13T13:51:15.770Z,16.35
2019-05-13T13:53:48.026Z,16.40
2019-05-13T13:56:24.502Z,16.26
2019-05-13T13:58:52.088Z,16.06
2019-05-13T14:01:27.249Z,16.32
2019-05-13T14:03:57.097Z,16.22
2019-05-13T14:06:29.232Z,17.00
2019-05-13T14:07:13.615Z,16.91
2019-05-13T14:09:01.921Z,16.32
2019-05-13T14:11:34.867Z,16.14
2019-05-13T14:14:06.038Z,15.80
2019-05-13T14:16:38.841Z,16.12
2019-05-13T14:19:10.917Z,16.23
2019-05-13T14:21:42.801Z,15.56
2019-05-13T14:24:14.706Z,15.41
2019-05-13T14:26:46.544Z,15.07
2019-05-13T14:29:17.769Z,14.81
2019-05-13T14:31:51.837Z,15.12
2019-05-13T14:34:22.514Z,15.29
2019-05-13T14:36:53.670Z,15.39
2019-05-13T14:39:25.698Z,15.63
2019-05-13T14:41:56.899Z,15.74
2019-05-13T14:44:28.945Z,16.29
2019-05-13T14:47:01.607Z,16.55
2019-05-13T14:49:33.837Z,16.63
2019-05-13T14:52:06.061Z,16.34
2019-05-13T14:54:37.696Z,16.01
2019-05-13T14:57:11.840Z,16.01
2019-05-13T14:59:41.687Z,15.60
2019-05-13T15:02:13.506Z,15.64
2019-05-13T15:04:45.654Z,15.88
2019-05-13T15:07:18.074Z,15.85
2019-05-13T15:09:51.482Z,15.83
2019-05-13T15:12:22.871Z,15.69
2019-05-13T15:14:54.800Z,15.64
2019-05-13T15:17:26.963Z,15.60
2019-05-13T15:19:58.263Z,15.47
2019-05-13T15:22:31.846Z,15.26
2019-05-13T15:25:03.494Z,14.84
2019-05-13T15:27:34.606Z,14.95
2019-05-13T15:30:17.372Z,15.03
2019-05-13T15:32:41.998Z,14.78
2019-05-13T15:35:13.524Z,14.87
2019-05-13T15:37:45.269Z,15.19
2019-05-13T15:40:16.690Z,15.37
2019-05-13T15:42:48.764Z,15.04
2019-05-13T15:45:21.304Z,15.00
2019-05-13T15:47:53.637Z,15.05
2019-05-13T15:50:24.724Z,15.23
2019-05-13T15:52:56.615Z,14.85
2019-05-13T15:55:28.060Z,14.76
2019-05-13T15:57:59.256Z,14.72
2019-05-13T16:00:30.383Z,14.53
2019-05-13T16:03:01.748Z,14.78
2019-05-13T16:05:33.169Z,15.03
2019-05-13T16:08:05.340Z,14.85
2019-05-13T16:10:36.544Z,14.89
2019-05-13T16:13:07.789Z,14.93
2019-05-13T16:15:41.470Z,15.05
2019-05-13T16:18:13.620Z,15.12
2019-05-13T16:20:45.436Z,15.33
2019-05-13T16:23:23.802Z,15.30
2019-05-13T16:25:55.052Z,15.54
2019-05-13T16:28:26.201Z,15.42
2019-05-13T16:30:57.530Z,15.51
2019-05-13T16:33:31.189Z,15.53
2019-05-13T16:36:02.840Z,15.16
2019-05-13T16:38:34.093Z,15.08
2019-05-13T16:41:05.254Z,15.01
2019-05-13T16:43:36.835Z,14.75
2019-05-13T16:46:08.013Z,14.95
2019-05-13T16:48:41.587Z,14.88
2019-05-13T16:51:13.660Z,14.92
2019-05-13T16:53:44.894Z,14.95
2019-05-13T16:56:26.321Z,14.91
2019-05-13T16:58:52.127Z,15.08
2019-05-13T17:01:29.014Z,14.93
2019-05-13T17:04:06.785Z,15.38
2019-05-13T17:06:41.665Z,15.62
2019-05-13T17:09:14.782Z,15.82
2019-05-13T17:11:48.387Z,15.46
2019-05-13T17:14:22.777Z,15.01
2019-05-13T17:16:58.705Z,15.18
2019-05-13T17:19:33.595Z,15.39
2019-05-13T17:22:07.254Z,15.05
2019-05-13T17:24:42.460Z,14.96
2019-05-13T17:27:12.777Z,15.13
2019-05-13T17:29:43.961Z,15.77
2019-05-13T17:32:15.332Z,15.28
2019-05-13T17:34:47.204Z,15.03
2019-05-13T17:37:19.166Z,15.47
2019-05-13T17:39:51.481Z,14.85
2019-05-13T17:42:23.549Z,14.45
2019-05-13T17:44:54.909Z,14.24
2019-05-13T17:47:26.157Z,14.28
2019-05-13T17:49:58.227Z,14.66
2019-05-13T17:52:30.249Z,15.19
2019-05-13T17:55:02.306Z,14.92
2019-05-13T17:57:34.597Z,14.51
2019-05-13T18:00:07.377Z,14.39
2019-05-13T18:02:42.042Z,14.06
2019-05-13T18:05:13.931Z,13.80
2019-05-13T18:07:46.090Z,14.10
2019-05-13T18:10:17.548Z,13.85
2019-05-13T18:12:51.105Z,13.95
2019-05-13T18:15:23.095Z,13.55
2019-05-13T18:17:54.404Z,13.21
2019-05-13T18:20:26.576Z,13.02
2019-05-13T18:22:58.234Z,12.68
2019-05-13T18:25:31.801Z,12.43
2019-05-13T18:28:03.232Z,12.08
2019-05-13T18:30:35.573Z,11.92
2019-05-13T18:33:07.356Z,11.78
2019-05-13T18:35:41.711Z,11.78
2019-05-13T18:38:13.489Z,11.85
2019-05-13T18:40:45.602Z,11.84
2019-05-13T18:43:17.033Z,11.86
2019-05-13T18:45:48.483Z,11.65
2019-05-13T18:48:21.915Z,11.53
2019-05-13T18:50:54.261Z,11.38
2019-05-13T18:53:25.945Z,11.52
2019-05-13T18:55:57.229Z,11.38
2019-05-13T18:58:31.472Z,11.37
2019-05-13T19:01:03.693Z,11.41
2019-05-13T19:03:35.281Z,11.10
2019-05-13T19:06:07.285Z,10.93
2019-05-13T19:08:41.395Z,10.74
2019-05-13T19:11:12.575Z,10.64
2019-05-13T19:13:48.520Z,10.72
2019-05-13T19:16:21.433Z,10.87
2019-05-13T19:18:53.912Z,10.83
2019-05-13T19:21:27.055Z,10.72
2019-05-13T19:24:01.907Z,10.51
2019-05-13T19:26:33.935Z,10.30
2019-05-13T19:29:06.548Z,10.12
2019-05-13T19:31:41.835Z,10.01
2019-05-13T19:34:18.233Z,9.89
2019-05-13T19:36:51.616Z,9.89
2019-05-13T19:39:24.134Z,9.83
2019-05-13T19:41:59.359Z,9.79
2019-05-13T19:44:31.795Z,9.70
2019-05-13T19:47:05.071Z,9.53
2019-05-13T19:49:37.926Z,9.38
2019-05-13T19:52:11.953Z,9.18
2019-05-13T19:54:44.429Z,9.24
2019-05-13T19:57:16.708Z,9.05
2019-05-13T19:59:49.512Z,8.90
2019-05-13T20:02:22.352Z,8.86
2019-05-13T20:04:57.471Z,8.87
2019-05-13T20:07:31.787Z,8.77
2019-05-13T20:10:18.924Z,8.77
2019-05-13T20:13:13.279Z,8.94
2019-05-13T20:16:22.327Z,8.84
2019-05-13T20:18:48.201Z,8.55
2019-05-13T20:21:32.469Z,8.29
2019-05-13T20:24:17.259Z,8.05
2019-05-13T20:26:54.497Z,7.89
2019-05-13T20:29:28.572Z,7.78
2019-05-13T20:32:01.488Z,7.70
2019-05-13T20:34:35.751Z,7.71
2019-05-13T20:37:14.791Z,7.81
2019-05-13T20:39:48.584Z,8.16
2019-05-13T20:42:46.883Z,8.47
2019-05-13T20:45:42.136Z,8.66
2019-05-13T20:48:25.820Z,8.67
2019-05-13T20:51:02.555Z,8.67
2019-05-13T20:54:14.402Z,8.63
2019-05-13T20:56:42.120Z,8.76
2019-05-13T20:59:28.737Z,8.53
2019-05-13T21:02:15.159Z,8.50
2019-05-13T21:04:58.115Z,8.83
2019-05-13T21:07:38.783Z,8.87
2019-05-13T21:10:12.169Z,8.99
2019-05-13T21:12:44.342Z,9.05
2019-05-13T21:15:26.310Z,8.92
2019-05-13T21:17:53.820Z,8.99
2019-05-13T21:20:29.053Z,8.97
2019-05-13T21:23:02.265Z,8.87
2019-05-13T21:25:36.200Z,8.94
2019-05-13T21:28:07.524Z,8.84
2019-05-13T21:30:42.022Z,8.91
2019-05-13T21:33:18.249Z,8.90
2019-05-13T21:35:55.703Z,8.82
2019-05-13T21:38:35.090Z,8.75
2019-05-13T21:41:08.002Z,8.67
2019-05-13T21:43:42.897Z,8.82
2019-05-13T21:46:16.506Z,8.76
2019-05-13T21:48:48.483Z,8.80
2019-05-13T21:51:22.155Z,8.67
2019-05-13T21:53:55.527Z,8.56
2019-05-13T21:56:27.540Z,8.47
2019-05-13T21:59:01.429Z,8.35
2019-05-13T22:01:33.177Z,8.16
2019-05-13T22:04:05.243Z,8.24
2019-05-13T22:06:37.273Z,8.30
2019-05-13T22:09:11.748Z,8.23
2019-05-13T22:11:43.956Z,8.13
2019-05-13T22:14:15.813Z,8.09
2019-05-13T22:16:47.117Z,8.01
2019-05-13T22:19:19.016Z,8.17
2019-05-13T22:21:51.505Z,8.08
2019-05-13T22:24:24.034Z,7.88
2019-05-13T22:26:56.108Z,7.85
2019-05-13T22:29:27.309Z,7.73
2019-05-13T22:31:59.294Z,7.67
2019-05-13T22:34:31.865Z,7.63
2019-05-13T22:37:03.545Z,7.65
2019-05-13T22:39:35.442Z,7.41
2019-05-13T22:42:07.507Z,7.20
2019-05-13T22:44:41.527Z,7.14
2019-05-13T22:47:13.453Z,6.94
2019-05-13T22:49:45.417Z,6.78
2019-05-13T22:52:17.313Z,6.69
2019-05-13T22:54:51.654Z,6.61
2019-05-13T22:57:22.802Z,6.46
2019-05-13T22:59:54.049Z,6.39
2019-05-13T23:02:25.921Z,6.20
2019-05-13T23:04:57.724Z,6.12
2019-05-13T23:07:31.534Z,6.04
2019-05-13T23:10:03.152Z,5.97
2019-05-13T23:12:34.443Z,5.98
2019-05-13T23:15:07.343Z,5.94
2019-05-13T23:17:38.698Z,5.86
2019-05-13T23:20:10.705Z,5.78
2019-05-13T23:22:42.715Z,5.87
2019-05-13T23:25:14.689Z,5.99
2019-05-13T23:27:46.645Z,6.14
2019-05-13T23:30:18.831Z,6.36
2019-05-13T23:32:51.740Z,6.29
2019-05-13T23:35:23.895Z,6.29
2019-05-13T23:37:55.788Z,6.22
2019-05-13T23:40:27.901Z,6.27
2019-05-13T23:43:01.900Z,6.17
2019-05-13T23:45:33.665Z,6.20
2019-05-13T23:48:05.598Z,6.21
2019-05-13T23:50:37.484Z,6.19
2019-05-13T23:53:09.374Z,6.10
2019-05-13T23:55:41.445Z,6.08
2019-05-13T23:58:13.336Z,5.96
